Time,TemperatureF,DewpointF,PressureIn,WindDirection,WindDirectionDegrees,WindSpeedMPH,WindSpeedGustMPH,Humidity,HourlyPrecipIn,Conditions,Clouds,dailyrainin,SolarRadiationWatts/m^2,SoftwareType,DateUTC
2013-10-20 00:02:00,46.0,45.0,-100.00,East,97,1.0,3.0,98,0.00,,,0.00,0.000000,,2013-10-20 07:02:00,
2013-10-20 00:12:00,46.0,45.0,-100.00,East,97,1.0,3.0,98,0.00,,,0.00,0.000000,,2013-10-20 07:12:00,
2013-10-20 00:22:00,46.0,45.0,-100.00,East,97,1.0,3.0,98,0.00,,,0.00,0.000000,,2013-10-20 07:22:00,
2013-10-20 00:32:00,46.0,45.0,-100.00,East,97,1.0,3.0,98,0.00,,,0.00,0.000000,,2013-10-20 07:32:00,
2013-10-20 00:52:00,45.0,44.0,-100.00,SE,125,0.0,3.0,98,0.00,,,0.00,0.000000,,2013-10-20 07:52:00,
2013-10-20 01:02:00,45.0,44.0,-100.00,SE,125,0.0,3.0,98,0.00,,,0.00,0.000000,,2013-10-20 08:02:00,
2013-10-20 01:11:00,45.0,44.0,-100.00,SE,125,0.0,3.0,98,0.00,,,0.00,0.000000,,2013-10-20 08:11:00,
2013-10-20 01:22:00,45.0,44.0,-100.00,SE,125,0.0,3.0,98,0.00,,,0.00,0.000000,,2013-10-20 08:22:00,
2013-10-20 01:32:00,45.0,44.0,-100.00,SE,125,0.0,3.0,98,0.00,,,0.00,0.000000,,2013-10-20 08:32:00,
2013-10-20 01:33:00,45.0,44.0,-100.00,East,90,0.0,2.0,98,0.01,,,0.01,0.000000,,2013-10-20 08:33:00,
2013-10-20 01:52:00,45.0,44.0,-100.00,East,90,0.0,2.0,98,0.01,,,0.01,0.000000,,2013-10-20 08:52:00,
2013-10-20 02:02:00,45.0,44.0,-100.00,East,90,0.0,2.0,98,0.01,,,0.01,0.000000,,2013-10-20 09:02:00,
2013-10-20 02:11:00,45.0,44.0,-100.00,East,90,0.0,2.0,98,0.01,,,0.01,0.000000,,2013-10-20 09:11:00,
2013-10-20 02:21:00,45.0,44.0,-100.00,East,90,0.0,2.0,98,0.01,,,0.01,0.000000,,2013-10-20 09:21:00,
2013-10-20 02:33:00,45.0,44.0,-100.00,ENE,66,1.0,3.0,98,0.00,,,0.01,0.000000,,2013-10-20 09:33:00,
2013-10-20 02:53:00,45.0,44.0,-100.00,ENE,66,1.0,3.0,98,0.00,,,0.01,0.000000,,2013-10-20 09:53:00,
2013-10-20 03:03:00,45.0,44.0,-100.00,ENE,66,1.0,3.0,98,0.00,,,0.01,0.000000,,2013-10-20 10:03:00,
2013-10-20 03:12:00,45.0,44.0,-100.00,ENE,66,1.0,3.0,98,0.00,,,0.01,0.000000,,2013-10-20 10:12:00,
2013-10-20 03:23:00,45.0,44.0,-100.00,ENE,66,1.0,3.0,98,0.00,,,0.01,0.000000,,2013-10-20 10:23:00,
2013-10-20 03:33:00,44.0,43.0,-100.00,ESE,115,0.0,4.0,98,0.00,,,0.01,0.000000,,2013-10-20 10:33:00,
2013-10-20 03:53:00,44.0,43.0,-100.00,ESE,115,0.0,4.0,98,0.00,,,0.01,0.000000,,2013-10-20 10:53:00,
2013-10-20 04:02:00,44.0,43.0,-100.00,ESE,115,0.0,4.0,98,0.00,,,0.01,0.000000,,2013-10-20 11:02:00,
2013-10-20 04:12:00,44.0,43.0,-100.00,ESE,115,0.0,4.0,98,0.00,,,0.01,0.000000,,2013-10-20 11:12:00,
2013-10-20 04:22:00,44.0,43.0,-100.00,ESE,115,0.0,4.0,98,0.00,,,0.01,0.000000,,2013-10-20 11:22:00,
2013-10-20 04:52:00,43.0,42.0,-100.00,NNE,24,0.0,3.0,98,0.00,,,0.01,0.000000,,2013-10-20 11:52:00,
2013-10-20 05:02:00,43.0,42.0,-100.00,NNE,24,0.0,3.0,98,0.00,,,0.01,0.000000,,2013-10-20 12:02:00,
2013-10-20 05:11:00,43.0,42.0,-100.00,NNE,24,0.0,3.0,98,0.00,,,0.01,0.000000,,2013-10-20 12:11:00,
2013-10-20 05:21:00,43.0,42.0,-100.00,NNE,24,0.0,3.0,98,0.00,,,0.01,0.000000,,2013-10-20 12:21:00,
2013-10-20 05:32:00,43.0,42.0,-100.00,NNE,24,0.0,3.0,98,0.00,,,0.01,0.000000,,2013-10-20 12:32:00,
2013-10-20 05:52:00,42.0,41.0,-100.00,North,354,0.0,3.0,98,0.00,,,0.01,0.000000,,2013-10-20 12:52:00,
2013-10-20 06:01:00,42.0,41.0,-100.00,North,354,0.0,3.0,98,0.00,,,0.01,0.000000,,2013-10-20 13:01:00,
2013-10-20 06:11:00,42.0,41.0,-100.00,North,354,0.0,3.0,98,0.00,,,0.01,0.000000,,2013-10-20 13:11:00,
2013-10-20 06:21:00,42.0,41.0,-100.00,North,354,0.0,3.0,98,0.00,,,0.01,0.000000,,2013-10-20 13:21:00,
2013-10-20 06:32:00,42.0,41.0,-100.00,North,354,0.0,3.0,98,0.00,,,0.01,0.000000,,2013-10-20 13:32:00,
2013-10-20 06:52:00,42.0,41.0,-100.00,NNW,327,0.0,3.0,98,0.00,,,0.01,0.000000,,2013-10-20 13:52:00,
2013-10-20 07:02:00,42.0,41.0,-100.00,NNW,327,0.0,3.0,98,0.00,,,0.01,0.000000,,2013-10-20 14:02:00,
2013-10-20 07:12:00,42.0,41.0,-100.00,NNW,327,0.0,3.0,98,0.00,,,0.01,0.000000,,2013-10-20 14:12:00,
2013-10-20 07:21:00,42.0,41.0,-100.00,NNW,327,0.0,3.0,98,0.00,,,0.01,0.000000,,2013-10-20 14:21:00,
2013-10-20 07:32:00,42.0,41.0,-100.00,NNW,327,0.0,3.0,98,0.00,,,0.01,0.000000,,2013-10-20 14:32:00,
2013-10-20 07:33:00,42.0,41.0,-100.00,ESE,110,0.0,2.0,98,0.00,,,0.01,0.000000,,2013-10-20 14:33:00,
2013-10-20 07:52:00,42.0,41.0,-100.00,ESE,110,0.0,2.0,98,0.00,,,0.01,0.000000,,2013-10-20 14:52:00,
2013-10-20 08:02:00,42.0,41.0,-100.00,ESE,110,0.0,2.0,98,0.00,,,0.01,0.000000,,2013-10-20 15:02:00,
2013-10-20 08:11:00,42.0,41.0,-100.00,ESE,110,0.0,2.0,98,0.00,,,0.01,0.000000,,2013-10-20 15:11:00,
2013-10-20 08:21:00,42.0,41.0,-100.00,ESE,110,0.0,2.0,98,0.00,,,0.01,0.000000,,2013-10-20 15:21:00,
2013-10-20 08:33:00,42.0,41.0,-100.00,ESE,121,0.0,3.0,98,0.00,,,0.01,10.000000,,2013-10-20 15:33:00,
2013-10-20 08:54:00,42.0,41.0,-100.00,ESE,121,0.0,3.0,98,0.00,,,0.01,10.000000,,2013-10-20 15:54:00,
2013-10-20 09:04:00,42.0,41.0,-100.00,ESE,121,0.0,3.0,98,0.00,,,0.01,10.000000,,2013-10-20 16:04:00,
2013-10-20 09:14:00,42.0,41.0,-100.00,ESE,121,0.0,3.0,98,0.00,,,0.01,10.000000,,2013-10-20 16:14:00,
2013-10-20 09:24:00,42.0,41.0,-100.00,ESE,121,0.0,3.0,98,0.00,,,0.01,10.000000,,2013-10-20 16:24:00,
2013-10-20 09:33:00,43.0,42.0,-100.00,East,86,0.0,3.0,98,0.00,,,0.01,69.000000,,2013-10-20 16:33:00,
2013-10-20 09:54:00,43.0,42.0,-100.00,East,86,0.0,3.0,98,0.00,,,0.01,69.000000,,2013-10-20 16:54:00,
2013-10-20 10:03:00,43.0,42.0,-100.00,East,86,0.0,3.0,98,0.00,,,0.01,69.000000,,2013-10-20 17:03:00,
2013-10-20 10:12:00,43.0,42.0,-100.00,East,86,0.0,3.0,98,0.00,,,0.01,69.000000,,2013-10-20 17:12:00,
2013-10-20 10:23:00,43.0,42.0,-100.00,East,86,0.0,3.0,98,0.00,,,0.01,69.000000,,2013-10-20 17:23:00,
2013-10-20 10:52:00,45.0,44.0,-100.00,SW,236,0.0,2.0,98,0.00,,,0.01,132.000000,,2013-10-20 17:52:00,
2013-10-20 11:02:00,45.0,44.0,-100.00,SW,236,0.0,2.0,98,0.00,,,0.01,132.000000,,2013-10-20 18:02:00,
2013-10-20 11:12:00,45.0,44.0,-100.00,SW,236,0.0,2.0,98,0.00,,,0.01,132.000000,,2013-10-20 18:12:00,
2013-10-20 11:21:00,45.0,44.0,-100.00,SW,236,0.0,2.0,98,0.00,,,0.01,132.000000,,2013-10-20 18:21:00,
2013-10-20 11:32:00,45.0,44.0,-100.00,SW,236,0.0,2.0,98,0.00,,,0.01,132.000000,,2013-10-20 18:32:00,
2013-10-20 11:52:00,47.0,46.0,-100.00,South,185,1.0,4.0,98,0.00,,,0.01,197.000000,,2013-10-20 18:52:00,
2013-10-20 12:02:00,47.0,46.0,-100.00,South,185,1.0,4.0,98,0.00,,,0.01,197.000000,,2013-10-20 19:02:00,
2013-10-20 12:12:00,47.0,46.0,-100.00,South,185,1.0,4.0,98,0.00,,,0.01,197.000000,,2013-10-20 19:12:00,
2013-10-20 12:21:00,47.0,46.0,-100.00,South,185,1.0,4.0,98,0.00,,,0.01,197.000000,,2013-10-20 19:21:00,
2013-10-20 12:31:00,47.0,46.0,-100.00,South,185,1.0,4.0,98,0.00,,,0.01,197.000000,,2013-10-20 19:31:00,
2013-10-20 12:52:00,52.0,50.0,-100.00,SSW,196,2.0,5.0,92,0.00,,,0.01,384.000000,,2013-10-20 19:52:00,
2013-10-20 13:02:00,52.0,50.0,-100.00,SSW,196,2.0,5.0,92,0.00,,,0.01,384.000000,,2013-10-20 20:02:00,
2013-10-20 13:11:00,52.0,50.0,-100.00,SSW,196,2.0,5.0,92,0.00,,,0.01,384.000000,,2013-10-20 20:11:00,
2013-10-20 13:22:00,52.0,50.0,-100.00,SSW,196,2.0,5.0,92,0.00,,,0.01,384.000000,,2013-10-20 20:22:00,
2013-10-20 13:32:00,52.0,50.0,-100.00,SSW,196,2.0,5.0,92,0.00,,,0.01,384.000000,,2013-10-20 20:32:00,
2013-10-20 16:52:00,54.0,49.0,-100.00,SW,217,2.0,7.0,83,-99.99,,,0.01,62.000000,,2013-10-20 23:52:00,
2013-10-20 17:02:00,54.0,49.0,-100.00,SW,217,2.0,7.0,83,-99.99,,,0.01,62.000000,,2013-10-21 00:02:00,
2013-10-20 17:11:00,54.0,49.0,-100.00,SW,217,2.0,7.0,83,-99.99,,,0.01,62.000000,,2013-10-21 00:11:00,
2013-10-20 17:21:00,54.0,49.0,-100.00,SW,217,2.0,7.0,83,-99.99,,,0.01,62.000000,,2013-10-21 00:21:00,
2013-10-20 17:32:00,54.0,49.0,-100.00,SW,217,2.0,7.0,83,-99.99,,,0.01,62.000000,,2013-10-21 00:32:00,
2013-10-20 17:52:00,50.0,47.0,-100.00,WSW,237,1.0,6.0,89,0.00,,,0.01,25.000000,,2013-10-21 00:52:00,
2013-10-20 18:02:00,50.0,47.0,-100.00,WSW,237,1.0,6.0,89,0.00,,,0.01,25.000000,,2013-10-21 01:02:00,
2013-10-20 18:11:00,50.0,47.0,-100.00,WSW,237,1.0,6.0,89,0.00,,,0.01,25.000000,,2013-10-21 01:11:00,
2013-10-20 18:21:00,50.0,47.0,-100.00,WSW,237,1.0,6.0,89,0.00,,,0.01,25.000000,,2013-10-21 01:21:00,
2013-10-20 18:32:00,50.0,47.0,-100.00,WSW,237,1.0,6.0,89,0.00,,,0.01,25.000000,,2013-10-21 01:32:00,
2013-10-20 18:52:00,47.0,46.0,-100.00,SW,219,0.0,5.0,97,0.00,,,0.01,11.000000,,2013-10-21 01:52:00,
2013-10-20 19:02:00,47.0,46.0,-100.00,SW,219,0.0,5.0,97,0.00,,,0.01,11.000000,,2013-10-21 02:02:00,
2013-10-20 19:12:00,47.0,46.0,-100.00,SW,219,0.0,5.0,97,0.00,,,0.01,11.000000,,2013-10-21 02:12:00,
2013-10-20 19:21:00,47.0,46.0,-100.00,SW,219,0.0,5.0,97,0.00,,,0.01,11.000000,,2013-10-21 02:21:00,
2013-10-20 19:32:00,47.0,46.0,-100.00,SW,219,0.0,5.0,97,0.00,,,0.01,11.000000,,2013-10-21 02:32:00,
2013-10-20 19:33:00,46.0,45.0,-100.00,SE,146,0.0,3.0,98,0.00,,,0.01,0.000000,,2013-10-21 02:33:00,
2013-10-20 19:52:00,46.0,45.0,-100.00,SE,146,0.0,3.0,98,0.00,,,0.01,0.000000,,2013-10-21 02:52:00,
2013-10-20 20:03:00,46.0,45.0,-100.00,SE,146,0.0,3.0,98,0.00,,,0.01,0.000000,,2013-10-21 03:03:00,
2013-10-20 20:12:00,46.0,45.0,-100.00,SE,146,0.0,3.0,98,0.00,,,0.01,0.000000,,2013-10-21 03:12:00,
2013-10-20 20:22:00,46.0,45.0,-100.00,SE,146,0.0,3.0,98,0.00,,,0.01,0.000000,,2013-10-21 03:22:00,
2013-10-20 20:33:00,45.0,44.0,-100.00,NE,36,1.0,2.0,98,0.00,,,0.01,0.000000,,2013-10-21 03:33:00,
2013-10-20 20:55:00,45.0,44.0,-100.00,NE,36,1.0,2.0,98,0.00,,,0.01,0.000000,,2013-10-21 03:55:00,
2013-10-20 21:04:00,45.0,44.0,-100.00,NE,36,1.0,2.0,98,0.00,,,0.01,0.000000,,2013-10-21 04:04:00,
2013-10-20 21:13:00,45.0,44.0,-100.00,NE,36,1.0,2.0,98,0.00,,,0.01,0.000000,,2013-10-21 04:13:00,
2013-10-20 21:24:00,45.0,44.0,-100.00,NE,36,1.0,2.0,98,0.00,,,0.01,0.000000,,2013-10-21 04:24:00,
2013-10-20 21:33:00,45.0,44.0,-100.00,NE,46,0.0,2.0,98,0.00,,,0.01,0.000000,,2013-10-21 04:33:00,
2013-10-20 21:53:00,45.0,44.0,-100.00,NE,46,0.0,2.0,98,0.00,,,0.01,0.000000,,2013-10-21 04:53:00,
2013-10-20 22:04:00,45.0,44.0,-100.00,NE,46,0.0,2.0,98,0.00,,,0.01,0.000000,,2013-10-21 05:04:00,
2013-10-20 22:13:00,45.0,44.0,-100.00,NE,46,0.0,2.0,98,0.00,,,0.01,0.000000,,2013-10-21 05:13:00,
2013-10-20 22:23:00,45.0,44.0,-100.00,NE,46,0.0,2.0,98,0.00,,,0.01,0.000000,,2013-10-21 05:23:00,
2013-10-20 22:52:00,45.0,44.0,-100.00,North,7,0.0,2.0,98,0.00,,,0.01,0.000000,,2013-10-21 05:52:00,
2013-10-20 23:02:00,45.0,44.0,-100.00,North,7,0.0,2.0,98,0.00,,,0.01,0.000000,,2013-10-21 06:02:00,
2013-10-20 23:12:00,45.0,44.0,-100.00,North,7,0.0,2.0,98,0.00,,,0.01,0.000000,,2013-10-21 06:12:00,
2013-10-20 23:22:00,45.0,44.0,-100.00,North,7,0.0,2.0,98,0.00,,,0.01,0.000000,,2013-10-21 06:22:00,
2013-10-20 23:32:00,45.0,44.0,-100.00,North,7,0.0,2.0,98,0.00,,,0.01,0.000000,,2013-10-21 06:32:00,
2013-10-20 23:52:00,44.0,43.0,-100.00,SSE,161,0.0,1.0,98,0.00,,,0.01,0.000000,,2013-10-21 06:52:00,